sensor_id;sensor_type;location;lat;lon;timestamp;pressure;altitude;pressure_sealevel;temperature;humidity
61870;BME280;47810;42.264;23.826;2023-02-27T00:01:24;92986.09;;;11.69;63.50
61870;BME280;47810;42.264;23.826;2023-02-27T00:03:49;92973.31;;;11.74;64.36
61870;BME280;47810;42.264;23.826;2023-02-27T00:06:15;92980.53;;;11.72;65.05
61870;BME280;47810;42.264;23.826;2023-02-27T00:08:42;92979.88;;;11.37;71.59
61870;BME280;47810;42.264;23.826;2023-02-27T00:11:08;93001.59;;;10.98;72.84
61870;BME280;47810;42.264;23.826;2023-02-27T00:13:33;92992.53;;;10.79;72.84
61870;BME280;47810;42.264;23.826;2023-02-27T00:15:59;92989.63;;;10.93;73.26
61870;BME280;47810;42.264;23.826;2023-02-27T00:18:24;92981.41;;;10.53;74.75
61870;BME280;47810;42.264;23.826;2023-02-27T00:20:50;92979.09;;;10.71;75.08
61870;BME280;47810;42.264;23.826;2023-02-27T00:23:16;92991.56;;;10.80;75.19
61870;BME280;47810;42.264;23.826;2023-02-27T00:25:41;92993.78;;;10.41;76.54
61870;BME280;47810;42.264;23.826;2023-02-27T00:28:07;93017.91;;;10.01;77.23
61870;BME280;47810;42.264;23.826;2023-02-27T00:30:33;93015.06;;;10.04;77.06
61870;BME280;47810;42.264;23.826;2023-02-27T00:32:58;93005.94;;;9.97;78.61
61870;BME280;47810;42.264;23.826;2023-02-27T00:35:24;93020.59;;;10.13;78.64
61870;BME280;47810;42.264;23.826;2023-02-27T00:37:49;93027.28;;;9.94;79.30
61870;BME280;47810;42.264;23.826;2023-02-27T00:40:15;93021.03;;;9.84;79.77
61870;BME280;47810;42.264;23.826;2023-02-27T00:42:41;93033.03;;;10.11;79.26
61870;BME280;47810;42.264;23.826;2023-02-27T00:45:07;93042.66;;;10.12;78.86
61870;BME280;47810;42.264;23.826;2023-02-27T00:47:33;93065.38;;;10.01;79.37
61870;BME280;47810;42.264;23.826;2023-02-27T00:49:59;93069.00;;;10.00;79.00
61870;BME280;47810;42.264;23.826;2023-02-27T00:52:25;93058.97;;;10.17;77.82
61870;BME280;47810;42.264;23.826;2023-02-27T00:54:50;93059.00;;;10.39;75.95
61870;BME280;47810;42.264;23.826;2023-02-27T00:57:16;93045.72;;;10.41;76.09
61870;BME280;47810;42.264;23.826;2023-02-27T00:59:42;93049.19;;;10.41;76.07
61870;BME280;47810;42.264;23.826;2023-02-27T01:02:08;93054.09;;;10.46;76.50
61870;BME280;47810;42.264;23.826;2023-02-27T01:04:34;93047.34;;;10.19;76.96
61870;BME280;47810;42.264;23.826;2023-02-27T01:06:59;93035.69;;;10.11;76.68
61870;BME280;47810;42.264;23.826;2023-02-27T01:09:25;93046.78;;;10.49;75.79
61870;BME280;47810;42.264;23.826;2023-02-27T01:11:51;93043.84;;;10.08;76.89
61870;BME280;47810;42.264;23.826;2023-02-27T01:14:17;93034.72;;;10.00;75.44
61870;BME280;47810;42.264;23.826;2023-02-27T01:16:42;93036.38;;;10.01;74.35
61870;BME280;47810;42.264;23.826;2023-02-27T01:19:08;93051.88;;;10.06;75.75
61870;BME280;47810;42.264;23.826;2023-02-27T01:21:33;93043.84;;;10.08;76.02
61870;BME280;47810;42.264;23.826;2023-02-27T01:23:59;93045.28;;;10.12;75.44
61870;BME280;47810;42.264;23.826;2023-02-27T01:26:25;93033.59;;;9.80;76.45
61870;BME280;47810;42.264;23.826;2023-02-27T01:28:52;93039.75;;;9.92;76.69
61870;BME280;47810;42.264;23.826;2023-02-27T01:31:17;93050.09;;;10.18;76.00
61870;BME280;47810;42.264;23.826;2023-02-27T01:33:43;93042.16;;;10.07;75.70
61870;BME280;47810;42.264;23.826;2023-02-27T01:36:08;93040.34;;;9.96;75.68
61870;BME280;47810;42.264;23.826;2023-02-27T01:38:34;93044.97;;;9.70;76.40
61870;BME280;47810;42.264;23.826;2023-02-27T01:41:00;93044.34;;;9.66;76.42
61870;BME280;47810;42.264;23.826;2023-02-27T01:43:26;93048.31;;;9.72;76.04
61870;BME280;47810;42.264;23.826;2023-02-27T01:45:52;93038.22;;;9.66;75.53
61870;BME280;47810;42.264;23.826;2023-02-27T01:48:19;93025.38;;;9.96;74.79
61870;BME280;47810;42.264;23.826;2023-02-27T01:50:55;93023.69;;;9.95;74.35
61870;BME280;47810;42.264;23.826;2023-02-27T01:53:21;93012.50;;;9.92;75.60
61870;BME280;47810;42.264;23.826;2023-02-27T01:55:51;93028.97;;;9.95;75.65
61870;BME280;47810;42.264;23.826;2023-02-27T01:58:17;93029.81;;;9.96;75.67
61870;BME280;47810;42.264;23.826;2023-02-27T02:00:43;93034.19;;;9.73;76.19
61870;BME280;47810;42.264;23.826;2023-02-27T02:06:01;93039.84;;;9.79;75.00
61870;BME280;47810;42.264;23.826;2023-02-27T02:08:31;93037.53;;;9.75;75.79
61870;BME280;47810;42.264;23.826;2023-02-27T02:11:00;93037.16;;;9.68;76.34
61870;BME280;47810;42.264;23.826;2023-02-27T02:13:27;93034.19;;;9.84;74.96
61870;BME280;47810;42.264;23.826;2023-02-27T02:16:06;93030.03;;;9.93;74.46
61870;BME280;47810;42.264;23.826;2023-02-27T02:18:44;93037.34;;;10.00;73.86
61870;BME280;47810;42.264;23.826;2023-02-27T02:26:26;93060.94;;;9.79;75.40
61870;BME280;47810;42.264;23.826;2023-02-27T02:38:55;93084.66;;;10.26;70.80
61870;BME280;47810;42.264;23.826;2023-02-27T02:41:49;93081.25;;;10.24;70.80
61870;BME280;47810;42.264;23.826;2023-02-27T02:49:25;93111.50;;;9.85;74.19
61870;BME280;47810;42.264;23.826;2023-02-27T02:54:55;93172.38;;;9.57;74.91
61870;BME280;47810;42.264;23.826;2023-02-27T03:00:25;93233.03;;;9.69;70.42
61870;BME280;47810;42.264;23.826;2023-02-27T03:02:54;93236.38;;;9.84;69.69
61870;BME280;47810;42.264;23.826;2023-02-27T03:05:31;93237.91;;;9.62;70.37
61870;BME280;47810;42.264;23.826;2023-02-27T03:08:02;93243.63;;;9.56;70.67
61870;BME280;47810;42.264;23.826;2023-02-27T03:10:29;93252.06;;;9.48;70.37
61870;BME280;47810;42.264;23.826;2023-02-27T03:15:47;93279.28;;;9.23;70.06
61870;BME280;47810;42.264;23.826;2023-02-27T03:18:18;93293.72;;;9.05;70.05
61870;BME280;47810;42.264;23.826;2023-02-27T03:20:56;93293.84;;;9.03;70.04
61870;BME280;47810;42.264;23.826;2023-02-27T03:23:26;93307.31;;;9.12;70.69
61870;BME280;47810;42.264;23.826;2023-02-27T03:25:53;93314.25;;;8.87;71.18
61870;BME280;47810;42.264;23.826;2023-02-27T03:28:21;93330.72;;;9.03;71.76
61870;BME280;47810;42.264;23.826;2023-02-27T03:31:07;93338.91;;;8.99;72.77
61870;BME280;47810;42.264;23.826;2023-02-27T03:33:52;93354.47;;;8.89;74.96
61870;BME280;47810;42.264;23.826;2023-02-27T03:38:54;93408.63;;;8.93;74.01
61870;BME280;47810;42.264;23.826;2023-02-27T03:46:23;93399.81;;;8.67;76.25
61870;BME280;47810;42.264;23.826;2023-02-27T03:48:50;93396.59;;;8.89;71.01
61870;BME280;47810;42.264;23.826;2023-02-27T03:51:17;93402.72;;;8.90;73.34
61870;BME280;47810;42.264;23.826;2023-02-27T03:56:09;93439.34;;;8.80;76.57
61870;BME280;47810;42.264;23.826;2023-02-27T03:58:36;93427.41;;;8.47;72.77
61870;BME280;47810;42.264;23.826;2023-02-27T04:01:02;93426.63;;;8.59;75.12
61870;BME280;47810;42.264;23.826;2023-02-27T04:03:27;93442.16;;;8.50;75.97
61870;BME280;47810;42.264;23.826;2023-02-27T04:05:54;93442.06;;;8.37;77.32
61870;BME280;47810;42.264;23.826;2023-02-27T04:21:05;93474.56;;;8.50;77.88
61870;BME280;47810;42.264;23.826;2023-02-27T04:31:24;93412.38;;;8.89;78.73
61870;BME280;47810;42.264;23.826;2023-02-27T04:33:58;93353.81;;;8.73;77.82
61870;BME280;47810;42.264;23.826;2023-02-27T04:36:33;93355.72;;;8.71;76.86
61870;BME280;47810;42.264;23.826;2023-02-27T04:41:32;93378.34;;;8.60;77.64
61870;BME280;47810;42.264;23.826;2023-02-27T04:44:00;93382.44;;;8.65;77.71
61870;BME280;47810;42.264;23.826;2023-02-27T04:46:27;93397.66;;;8.59;78.24
61870;BME280;47810;42.264;23.826;2023-02-27T04:49:01;93396.31;;;8.67;77.56
61870;BME280;47810;42.264;23.826;2023-02-27T04:51:32;93382.03;;;8.71;77.84
61870;BME280;47810;42.264;23.826;2023-02-27T04:54:01;93377.81;;;8.68;78.02
61870;BME280;47810;42.264;23.826;2023-02-27T04:56:32;93392.78;;;8.12;79.82
61870;BME280;47810;42.264;23.826;2023-02-27T04:59:01;93399.22;;;7.79;82.31
61870;BME280;47810;42.264;23.826;2023-02-27T05:01:34;93397.28;;;7.68;82.47
61870;BME280;47810;42.264;23.826;2023-02-27T05:04:01;93416.16;;;7.61;83.22
61870;BME280;47810;42.264;23.826;2023-02-27T05:06:29;93432.00;;;7.59;83.20
61870;BME280;47810;42.264;23.826;2023-02-27T05:09:11;93441.56;;;7.89;81.71
61870;BME280;47810;42.264;23.826;2023-02-27T05:11:43;93449.63;;;7.72;82.18
61870;BME280;47810;42.264;23.826;2023-02-27T05:16:38;93461.66;;;7.61;83.45
61870;BME280;47810;42.264;23.826;2023-02-27T05:19:06;93460.53;;;7.65;83.34
61870;BME280;47810;42.264;23.826;2023-02-27T05:21:35;93456.38;;;7.47;84.43
61870;BME280;47810;42.264;23.826;2023-02-27T05:29:05;93476.66;;;7.59;83.81
61870;BME280;47810;42.264;23.826;2023-02-27T05:31:48;93491.31;;;7.78;82.90
61870;BME280;47810;42.264;23.826;2023-02-27T05:34:19;93501.47;;;7.84;82.26
61870;BME280;47810;42.264;23.826;2023-02-27T05:36:50;93518.50;;;7.62;83.25
61870;BME280;47810;42.264;23.826;2023-02-27T05:39:18;93516.41;;;7.53;83.39
61870;BME280;47810;42.264;23.826;2023-02-27T05:41:53;93527.03;;;7.66;83.13
61870;BME280;47810;42.264;23.826;2023-02-27T05:44:28;93533.78;;;7.56;83.05
61870;BME280;47810;42.264;23.826;2023-02-27T05:46:56;93545.41;;;7.21;84.35
61870;BME280;47810;42.264;23.826;2023-02-27T05:49:30;93547.81;;;7.10;85.13
61870;BME280;47810;42.264;23.826;2023-02-27T05:51:57;93560.19;;;6.76;86.41
61870;BME280;47810;42.264;23.826;2023-02-27T05:54:37;93576.09;;;7.05;85.27
61870;BME280;47810;42.264;23.826;2023-02-27T05:57:06;93581.69;;;6.99;85.25
61870;BME280;47810;42.264;23.826;2023-02-27T06:02:17;93573.47;;;7.05;84.47
61870;BME280;47810;42.264;23.826;2023-02-27T06:04:42;93579.81;;;7.17;83.80
61870;BME280;47810;42.264;23.826;2023-02-27T06:07:08;93576.66;;;7.26;83.18
61870;BME280;47810;42.264;23.826;2023-02-27T06:09:34;93573.38;;;7.22;83.25
61870;BME280;47810;42.264;23.826;2023-02-27T06:12:01;93572.63;;;7.35;82.82
61870;BME280;47810;42.264;23.826;2023-02-27T06:14:26;93565.03;;;7.30;82.49
61870;BME280;47810;42.264;23.826;2023-02-27T06:16:52;93558.53;;;7.21;83.26
61870;BME280;47810;42.264;23.826;2023-02-27T06:19:17;93574.88;;;7.27;83.38
61870;BME280;47810;42.264;23.826;2023-02-27T06:21:43;93573.88;;;7.13;84.24
61870;BME280;47810;42.264;23.826;2023-02-27T06:24:08;93569.38;;;7.15;83.96
61870;BME280;47810;42.264;23.826;2023-02-27T06:26:34;93562.38;;;7.00;84.70
61870;BME280;47810;42.264;23.826;2023-02-27T06:29:00;93578.38;;;6.95;85.27
61870;BME280;47810;42.264;23.826;2023-02-27T06:31:25;93591.16;;;6.86;86.60
61870;BME280;47810;42.264;23.826;2023-02-27T06:33:51;93580.00;;;6.98;85.65
61870;BME280;47810;42.264;23.826;2023-02-27T06:36:16;93589.56;;;6.99;85.56
61870;BME280;47810;42.264;23.826;2023-02-27T06:38:42;93608.59;;;7.18;85.08
61870;BME280;47810;42.264;23.826;2023-02-27T06:41:08;93605.09;;;7.34;84.73
61870;BME280;47810;42.264;23.826;2023-02-27T06:43:33;93598.41;;;7.28;84.93
61870;BME280;47810;42.264;23.826;2023-02-27T06:46:00;93597.69;;;7.56;84.44
61870;BME280;47810;42.264;23.826;2023-02-27T06:48:26;93595.81;;;7.58;84.29
61870;BME280;47810;42.264;23.826;2023-02-27T06:50:53;93595.63;;;7.61;84.39
61870;BME280;47810;42.264;23.826;2023-02-27T06:53:18;93588.16;;;7.69;84.25
61870;BME280;47810;42.264;23.826;2023-02-27T06:55:45;93600.34;;;8.15;81.62
61870;BME280;47810;42.264;23.826;2023-02-27T06:58:11;93606.16;;;8.06;81.79
61870;BME280;47810;42.264;23.826;2023-02-27T07:00:36;93616.03;;;8.31;81.94
61870;BME280;47810;42.264;23.826;2023-02-27T07:03:02;93619.78;;;8.27;81.50
61870;BME280;47810;42.264;23.826;2023-02-27T07:05:29;93625.31;;;8.38;82.08
61870;BME280;47810;42.264;23.826;2023-02-27T07:07:55;93625.06;;;8.27;81.98
61870;BME280;47810;42.264;23.826;2023-02-27T07:10:22;93630.38;;;8.55;81.89
61870;BME280;47810;42.264;23.826;2023-02-27T07:12:49;93626.59;;;8.59;81.54
61870;BME280;47810;42.264;23.826;2023-02-27T07:15:14;93629.06;;;8.48;81.39
61870;BME280;47810;42.264;23.826;2023-02-27T07:17:40;93631.88;;;8.74;80.53
61870;BME280;47810;42.264;23.826;2023-02-27T07:20:06;93623.44;;;8.54;80.41
61870;BME280;47810;42.264;23.826;2023-02-27T07:22:32;93623.69;;;8.50;81.11
61870;BME280;47810;42.264;23.826;2023-02-27T07:25:00;93628.50;;;8.57;80.32
61870;BME280;47810;42.264;23.826;2023-02-27T07:27:26;93621.34;;;8.59;80.18
61870;BME280;47810;42.264;23.826;2023-02-27T07:29:52;93616.16;;;8.72;79.87
61870;BME280;47810;42.264;23.826;2023-02-27T07:32:18;93619.06;;;8.96;79.17
61870;BME280;47810;42.264;23.826;2023-02-27T07:34:43;93622.09;;;8.90;77.97
61870;BME280;47810;42.264;23.826;2023-02-27T07:37:09;93635.25;;;8.90;78.61
61870;BME280;47810;42.264;23.826;2023-02-27T07:39:34;93639.94;;;8.99;78.06
61870;BME280;47810;42.264;23.826;2023-02-27T07:42:00;93637.91;;;9.17;77.32
61870;BME280;47810;42.264;23.826;2023-02-27T07:44:26;93637.53;;;9.23;77.29
61870;BME280;47810;42.264;23.826;2023-02-27T07:46:55;93641.38;;;9.32;76.36
61870;BME280;47810;42.264;23.826;2023-02-27T07:49:21;93642.03;;;9.36;76.30
61870;BME280;47810;42.264;23.826;2023-02-27T07:51:48;93637.75;;;9.47;76.22
61870;BME280;47810;42.264;23.826;2023-02-27T07:54:15;93641.34;;;9.73;75.16
61870;BME280;47810;42.264;23.826;2023-02-27T07:56:46;93643.38;;;9.55;76.12
61870;BME280;47810;42.264;23.826;2023-02-27T07:59:13;93646.50;;;9.48;75.57
61870;BME280;47810;42.264;23.826;2023-02-27T08:01:38;93650.63;;;9.79;75.46
61870;BME280;47810;42.264;23.826;2023-02-27T08:04:05;93658.28;;;9.96;74.76
61870;BME280;47810;42.264;23.826;2023-02-27T08:06:39;93663.16;;;10.02;74.73
61870;BME280;47810;42.264;23.826;2023-02-27T08:09:05;93668.94;;;10.47;73.39
61870;BME280;47810;42.264;23.826;2023-02-27T08:11:31;93667.03;;;10.49;72.44
61870;BME280;47810;42.264;23.826;2023-02-27T08:14:02;93668.94;;;10.47;72.21
61870;BME280;47810;42.264;23.826;2023-02-27T08:16:28;93658.28;;;10.49;72.39
61870;BME280;47810;42.264;23.826;2023-02-27T08:21:25;93665.97;;;10.52;72.57
61870;BME280;47810;42.264;23.826;2023-02-27T08:23:53;93668.53;;;10.66;71.53
61870;BME280;47810;42.264;23.826;2023-02-27T08:26:18;93679.81;;;10.81;71.45
61870;BME280;47810;42.264;23.826;2023-02-27T08:28:49;93687.22;;;10.89;71.15
61870;BME280;47810;42.264;23.826;2023-02-27T08:31:21;93690.72;;;10.89;70.75
61870;BME280;47810;42.264;23.826;2023-02-27T08:33:47;93697.25;;;10.96;71.18
61870;BME280;47810;42.264;23.826;2023-02-27T08:38:48;93681.03;;;11.27;69.66
61870;BME280;47810;42.264;23.826;2023-02-27T08:41:21;93684.72;;;11.50;68.36
61870;BME280;47810;42.264;23.826;2023-02-27T08:43:51;93697.41;;;11.45;66.69
61870;BME280;47810;42.264;23.826;2023-02-27T08:52:10;93701.66;;;12.08;67.71
61870;BME280;47810;42.264;23.826;2023-02-27T08:57:36;93706.00;;;12.68;65.26
61870;BME280;47810;42.264;23.826;2023-02-27T09:00:03;93701.44;;;12.81;62.74
61870;BME280;47810;42.264;23.826;2023-02-27T09:11:09;93691.03;;;14.13;62.70
61870;BME280;47810;42.264;23.826;2023-02-27T09:13:35;93694.81;;;14.32;62.75
61870;BME280;47810;42.264;23.826;2023-02-27T09:21:34;93709.66;;;15.08;57.97
61870;BME280;47810;42.264;23.826;2023-02-27T09:27:09;93703.13;;;15.12;58.35
61870;BME280;47810;42.264;23.826;2023-02-27T09:29:34;93702.50;;;15.30;54.31
61870;BME280;47810;42.264;23.826;2023-02-27T09:41:00;93700.00;;;14.65;56.90
61870;BME280;47810;42.264;23.826;2023-02-27T10:07:43;93702.31;;;15.73;52.84
61870;BME280;47810;42.264;23.826;2023-02-27T10:25:38;93687.16;;;15.43;52.92
61870;BME280;47810;42.264;23.826;2023-02-27T10:38:04;93666.59;;;15.14;55.52
61870;BME280;47810;42.264;23.826;2023-02-27T10:47:41;93666.97;;;14.47;54.45
61870;BME280;47810;42.264;23.826;2023-02-27T10:50:22;93659.50;;;15.55;52.11
61870;BME280;47810;42.264;23.826;2023-02-27T11:11:10;93670.84;;;14.43;55.90
61870;BME280;47810;42.264;23.826;2023-02-27T11:17:10;93654.06;;;15.05;56.45
61870;BME280;47810;42.264;23.826;2023-02-27T11:29:32;93641.03;;;15.64;55.00
61870;BME280;47810;42.264;23.826;2023-02-27T11:32:16;93638.56;;;15.81;53.61
61870;BME280;47810;42.264;23.826;2023-02-27T11:34:53;93629.25;;;15.66;52.10
61870;BME280;47810;42.264;23.826;2023-02-27T11:46:05;93657.34;;;15.70;52.30
61870;BME280;47810;42.264;23.826;2023-02-27T11:57:59;93637.31;;;17.39;48.39
61870;BME280;47810;42.264;23.826;2023-02-27T12:12:13;93643.94;;;17.35;48.73
61870;BME280;47810;42.264;23.826;2023-02-27T12:17:10;93652.09;;;16.77;50.02
61870;BME280;47810;42.264;23.826;2023-02-27T12:22:35;93637.56;;;18.11;48.43
61870;BME280;47810;42.264;23.826;2023-02-27T12:36:14;93622.69;;;17.16;52.17
61870;BME280;47810;42.264;23.826;2023-02-27T12:48:09;93625.72;;;16.35;54.61
61870;BME280;47810;42.264;23.826;2023-02-27T13:34:22;93636.66;;;15.63;56.67
61870;BME280;47810;42.264;23.826;2023-02-27T13:37:01;93632.06;;;15.65;57.39
61870;BME280;47810;42.264;23.826;2023-02-27T13:46:38;93636.34;;;15.77;57.66
61870;BME280;47810;42.264;23.826;2023-02-27T14:15:48;93656.63;;;14.86;56.04
61870;BME280;47810;42.264;23.826;2023-02-27T14:22:26;93660.75;;;15.21;55.65
61870;BME280;47810;42.264;23.826;2023-02-27T14:28:30;93661.19;;;15.26;55.11
61870;BME280;47810;42.264;23.826;2023-02-27T14:40:04;93657.16;;;14.80;57.35
61870;BME280;47810;42.264;23.826;2023-02-27T14:54:33;93666.19;;;14.03;59.66
61870;BME280;47810;42.264;23.826;2023-02-27T14:57:06;93665.47;;;14.01;59.62
61870;BME280;47810;42.264;23.826;2023-02-27T14:59:44;93670.34;;;13.85;60.56
61870;BME280;47810;42.264;23.826;2023-02-27T15:10:17;93690.16;;;13.69;61.20
61870;BME280;47810;42.264;23.826;2023-02-27T15:12:51;93694.47;;;13.70;61.35
61870;BME280;47810;42.264;23.826;2023-02-27T15:15:24;93695.25;;;13.61;61.89
61870;BME280;47810;42.264;23.826;2023-02-27T15:17:50;93699.09;;;13.68;62.57
61870;BME280;47810;42.264;23.826;2023-02-27T15:29:54;93708.97;;;13.44;63.40
61870;BME280;47810;42.264;23.826;2023-02-27T15:32:40;93701.03;;;13.33;63.84
61870;BME280;47810;42.264;23.826;2023-02-27T15:35:18;93702.22;;;13.28;64.37
61870;BME280;47810;42.264;23.826;2023-02-27T15:47:38;93721.41;;;12.15;71.26
61870;BME280;47810;42.264;23.826;2023-02-27T15:53:39;93740.66;;;11.80;73.00
61870;BME280;47810;42.264;23.826;2023-02-27T15:56:15;93748.28;;;11.98;72.59
61870;BME280;47810;42.264;23.826;2023-02-27T16:01:37;93755.09;;;12.13;72.06
61870;BME280;47810;42.264;23.826;2023-02-27T16:12:37;93776.63;;;11.46;74.23
61870;BME280;47810;42.264;23.826;2023-02-27T16:20:45;93783.47;;;11.23;72.70
61870;BME280;47810;42.264;23.826;2023-02-27T16:33:26;93821.97;;;11.14;70.35
61870;BME280;47810;42.264;23.826;2023-02-27T16:36:09;93834.41;;;11.00;70.97
61870;BME280;47810;42.264;23.826;2023-02-27T16:41:50;93837.25;;;10.84;71.25
61870;BME280;47810;42.264;23.826;2023-02-27T16:50:41;93847.34;;;10.37;73.44
61870;BME280;47810;42.264;23.826;2023-02-27T16:53:23;93851.22;;;10.59;72.60
61870;BME280;47810;42.264;23.826;2023-02-27T16:58:39;93868.66;;;10.88;69.98
61870;BME280;47810;42.264;23.826;2023-02-27T17:03:45;93874.84;;;10.47;71.29
61870;BME280;47810;42.264;23.826;2023-02-27T17:06:13;93872.53;;;10.56;71.21
61870;BME280;47810;42.264;23.826;2023-02-27T17:13:43;93910.78;;;10.36;72.10
61870;BME280;47810;42.264;23.826;2023-02-27T17:16:08;93910.09;;;10.46;71.70
61870;BME280;47810;42.264;23.826;2023-02-27T17:18:34;93903.31;;;10.42;71.65
61870;BME280;47810;42.264;23.826;2023-02-27T17:21:09;93907.84;;;10.40;72.27
61870;BME280;47810;42.264;23.826;2023-02-27T17:23:34;93904.53;;;10.51;71.33
61870;BME280;47810;42.264;23.826;2023-02-27T17:26:02;93908.84;;;10.52;70.96
61870;BME280;47810;42.264;23.826;2023-02-27T17:28:31;93914.50;;;10.46;71.33
61870;BME280;47810;42.264;23.826;2023-02-27T17:30:58;93903.03;;;10.47;70.35
61870;BME280;47810;42.264;23.826;2023-02-27T17:33:30;93906.50;;;10.47;70.81
61870;BME280;47810;42.264;23.826;2023-02-27T17:36:06;93908.97;;;10.36;71.28
61870;BME280;47810;42.264;23.826;2023-02-27T17:41:08;93914.78;;;10.56;69.92
61870;BME280;47810;42.264;23.826;2023-02-27T17:43:35;93923.69;;;9.97;71.53
61870;BME280;47810;42.264;23.826;2023-02-27T17:46:10;93924.84;;;9.93;72.18
61870;BME280;47810;42.264;23.826;2023-02-27T17:51:14;93924.53;;;10.26;71.10
61870;BME280;47810;42.264;23.826;2023-02-27T17:53:49;93933.97;;;10.16;70.86
61870;BME280;47810;42.264;23.826;2023-02-27T17:56:14;93935.47;;;10.06;71.79
61870;BME280;47810;42.264;23.826;2023-02-27T17:58:40;93928.41;;;9.78;72.22
61870;BME280;47810;42.264;23.826;2023-02-27T18:01:20;93925.19;;;9.44;74.14
61870;BME280;47810;42.264;23.826;2023-02-27T18:06:21;93943.94;;;9.09;75.43
61870;BME280;47810;42.264;23.826;2023-02-27T18:11:18;93956.28;;;9.53;74.29
61870;BME280;47810;42.264;23.826;2023-02-27T18:16:17;93954.97;;;9.75;73.04
61870;BME280;47810;42.264;23.826;2023-02-27T18:18:43;93966.81;;;9.53;73.36
61870;BME280;47810;42.264;23.826;2023-02-27T18:21:13;93979.22;;;9.51;73.59
61870;BME280;47810;42.264;23.826;2023-02-27T18:23:42;93966.59;;;9.56;73.60
61870;BME280;47810;42.264;23.826;2023-02-27T18:28:44;93992.66;;;9.77;72.62
61870;BME280;47810;42.264;23.826;2023-02-27T18:31:24;93984.13;;;9.57;72.93
61870;BME280;47810;42.264;23.826;2023-02-27T18:33:50;93991.09;;;9.59;73.02
61870;BME280;47810;42.264;23.826;2023-02-27T18:36:19;94003.13;;;9.48;72.60
61870;BME280;47810;42.264;23.826;2023-02-27T18:41:15;94001.75;;;9.27;73.76
61870;BME280;47810;42.264;23.826;2023-02-27T18:43:42;94003.63;;;9.25;74.26
61870;BME280;47810;42.264;23.826;2023-02-27T18:46:10;94005.16;;;9.43;72.98
61870;BME280;47810;42.264;23.826;2023-02-27T18:48:37;94000.06;;;9.26;73.01
61870;BME280;47810;42.264;23.826;2023-02-27T18:51:04;94006.50;;;9.20;72.92
61870;BME280;47810;42.264;23.826;2023-02-27T18:53:43;94007.88;;;9.12;73.06
61870;BME280;47810;42.264;23.826;2023-02-27T18:58:40;94026.59;;;8.91;74.36
61870;BME280;47810;42.264;23.826;2023-02-27T19:01:07;94027.44;;;8.92;73.51
61870;BME280;47810;42.264;23.826;2023-02-27T19:03:37;94024.22;;;8.39;75.19
61870;BME280;47810;42.264;23.826;2023-02-27T19:06:10;94025.09;;;8.55;74.91
61870;BME280;47810;42.264;23.826;2023-02-27T19:08:36;94023.56;;;8.51;75.04
61870;BME280;47810;42.264;23.826;2023-02-27T19:13:31;94024.81;;;8.11;77.03
61870;BME280;47810;42.264;23.826;2023-02-27T19:15:56;94023.91;;;8.28;77.26
61870;BME280;47810;42.264;23.826;2023-02-27T19:18:25;94024.88;;;7.93;78.64
61870;BME280;47810;42.264;23.826;2023-02-27T19:20:51;94017.66;;;7.97;78.55
61870;BME280;47810;42.264;23.826;2023-02-27T19:23:18;94030.34;;;8.06;78.45
61870;BME280;47810;42.264;23.826;2023-02-27T19:25:56;94028.44;;;8.08;78.32
61870;BME280;47810;42.264;23.826;2023-02-27T19:28:22;94035.66;;;8.05;78.91
61870;BME280;47810;42.264;23.826;2023-02-27T19:30:54;94036.19;;;8.11;78.68
61870;BME280;47810;42.264;23.826;2023-02-27T19:33:25;94026.22;;;8.34;77.89
61870;BME280;47810;42.264;23.826;2023-02-27T19:35:51;94031.63;;;8.31;78.14
61870;BME280;47810;42.264;23.826;2023-02-27T19:38:29;94041.13;;;8.17;78.08
61870;BME280;47810;42.264;23.826;2023-02-27T19:40:58;94030.25;;;8.08;78.53
61870;BME280;47810;42.264;23.826;2023-02-27T19:43:27;94020.25;;;8.14;77.28
61870;BME280;47810;42.264;23.826;2023-02-27T19:45:54;94021.50;;;8.40;76.68
61870;BME280;47810;42.264;23.826;2023-02-27T19:51:21;94030.97;;;8.60;75.75
61870;BME280;47810;42.264;23.826;2023-02-27T19:53:56;94023.56;;;8.67;75.29
61870;BME280;47810;42.264;23.826;2023-02-27T19:56:22;94023.91;;;8.45;76.44
61870;BME280;47810;42.264;23.826;2023-02-27T19:58:58;94032.53;;;8.47;76.04
61870;BME280;47810;42.264;23.826;2023-02-27T20:04:07;94055.50;;;8.77;74.46
61870;BME280;47810;42.264;23.826;2023-02-27T20:06:36;94056.34;;;8.61;74.28
61870;BME280;47810;42.264;23.826;2023-02-27T20:11:37;94060.22;;;7.88;77.02
61870;BME280;47810;42.264;23.826;2023-02-27T20:14:10;94062.69;;;8.24;75.66
61870;BME280;47810;42.264;23.826;2023-02-27T20:16:37;94064.53;;;7.89;76.51
61870;BME280;47810;42.264;23.826;2023-02-27T20:19:04;94072.19;;;7.93;76.63
61870;BME280;47810;42.264;23.826;2023-02-27T20:21:31;94078.13;;;7.80;77.94
61870;BME280;47810;42.264;23.826;2023-02-27T20:24:03;94088.50;;;8.00;76.76
61870;BME280;47810;42.264;23.826;2023-02-27T20:26:30;94077.81;;;7.86;77.19
61870;BME280;47810;42.264;23.826;2023-02-27T20:29:07;94076.97;;;7.85;77.62
61870;BME280;47810;42.264;23.826;2023-02-27T20:36:37;94065.03;;;8.13;75.61
61870;BME280;47810;42.264;23.826;2023-02-27T20:39:06;94071.28;;;7.60;78.31
61870;BME280;47810;42.264;23.826;2023-02-27T20:41:32;94072.75;;;7.65;78.13
61870;BME280;47810;42.264;23.826;2023-02-27T20:46:32;94087.97;;;7.93;78.03
61870;BME280;47810;42.264;23.826;2023-02-27T20:49:07;94088.19;;;8.06;77.41
61870;BME280;47810;42.264;23.826;2023-02-27T20:51:37;94068.06;;;8.05;76.85
61870;BME280;47810;42.264;23.826;2023-02-27T20:54:05;94083.84;;;8.05;77.42
61870;BME280;47810;42.264;23.826;2023-02-27T20:56:34;94079.25;;;8.09;76.72
61870;BME280;47810;42.264;23.826;2023-02-27T20:59:01;94083.00;;;8.05;77.10
61870;BME280;47810;42.264;23.826;2023-02-27T21:01:29;94086.47;;;8.05;77.72
61870;BME280;47810;42.264;23.826;2023-02-27T21:03:56;94089.47;;;8.15;76.99
61870;BME280;47810;42.264;23.826;2023-02-27T21:06:22;94090.19;;;8.19;76.80